sensor_id;sensor_type;location;lat;lon;timestamp;pressure;altitude;pressure_sealevel;temperature;humidity
8047;BME280;67150;42.516;23.358;2023-02-28T00:02:35;88746.03;;;9.83;59.34
8047;BME280;67150;42.516;23.358;2023-02-28T00:05:23;88736.84;;;9.70;59.27
8047;BME280;67150;42.516;23.358;2023-02-28T00:08:10;88754.38;;;9.84;59.23
8047;BME280;67150;42.516;23.358;2023-02-28T00:11:01;88737.38;;;9.87;58.89
8047;BME280;67150;42.516;23.358;2023-02-28T00:13:47;88744.41;;;9.82;59.05
8047;BME280;67150;42.516;23.358;2023-02-28T00:16:33;88745.81;;;9.86;58.85
8047;BME280;67150;42.516;23.358;2023-02-28T00:19:19;88754.50;;;9.82;59.09
8047;BME280;67150;42.516;23.358;2023-02-28T00:22:06;88746.53;;;9.88;59.07
8047;BME280;67150;42.516;23.358;2023-02-28T00:24:52;88751.25;;;9.93;59.00
8047;BME280;67150;42.516;23.358;2023-02-28T00:27:39;88739.59;;;9.79;58.99
8047;BME280;67150;42.516;23.358;2023-02-28T00:30:25;88733.13;;;9.75;59.40
8047;BME280;67150;42.516;23.358;2023-02-28T00:33:11;88732.03;;;9.79;59.27
8047;BME280;67150;42.516;23.358;2023-02-28T00:36:06;88733.75;;;9.79;59.30
8047;BME280;67150;42.516;23.358;2023-02-28T00:38:53;88728.31;;;9.72;59.51
8047;BME280;67150;42.516;23.358;2023-02-28T00:41:40;88722.78;;;9.67;59.22
8047;BME280;67150;42.516;23.358;2023-02-28T00:44:26;88731.94;;;9.68;59.27
8047;BME280;67150;42.516;23.358;2023-02-28T00:47:12;88734.06;;;9.74;59.29
8047;BME280;67150;42.516;23.358;2023-02-28T00:49:59;88728.03;;;9.77;59.29
8047;BME280;67150;42.516;23.358;2023-02-28T00:52:45;88713.53;;;9.68;59.17
8047;BME280;67150;42.516;23.358;2023-02-28T00:55:33;88721.69;;;9.71;59.35
8047;BME280;67150;42.516;23.358;2023-02-28T00:58:18;88717.34;;;9.73;59.36
8047;BME280;67150;42.516;23.358;2023-02-28T01:01:04;88725.78;;;9.72;59.30
8047;BME280;67150;42.516;23.358;2023-02-28T01:03:50;88729.22;;;9.71;59.24
8047;BME280;67150;42.516;23.358;2023-02-28T01:06:36;88724.19;;;9.71;59.24
8047;BME280;67150;42.516;23.358;2023-02-28T01:09:22;88721.88;;;9.68;59.49
8047;BME280;67150;42.516;23.358;2023-02-28T01:12:09;88727.41;;;9.73;59.32
8047;BME280;67150;42.516;23.358;2023-02-28T01:14:55;88721.75;;;9.70;59.43
8047;BME280;67150;42.516;23.358;2023-02-28T01:17:41;88715.91;;;9.69;59.24
8047;BME280;67150;42.516;23.358;2023-02-28T01:20:27;88721.06;;;9.68;59.25
8047;BME280;67150;42.516;23.358;2023-02-28T01:23:13;88723.59;;;9.68;59.19
8047;BME280;67150;42.516;23.358;2023-02-28T01:26:04;88725.78;;;9.72;59.04
8047;BME280;67150;42.516;23.358;2023-02-28T01:28:52;88714.63;;;9.64;59.42
8047;BME280;67150;42.516;23.358;2023-02-28T01:31:38;88725.41;;;9.66;59.22
8047;BME280;67150;42.516;23.358;2023-02-28T01:34:24;88729.44;;;9.68;59.03
8047;BME280;67150;42.516;23.358;2023-02-28T01:37:10;88720.94;;;9.69;59.26
8047;BME280;67150;42.516;23.358;2023-02-28T01:39:56;88721.97;;;9.67;59.31
8047;BME280;67150;42.516;23.358;2023-02-28T01:42:42;88727.81;;;9.67;59.05
8047;BME280;67150;42.516;23.358;2023-02-28T01:45:30;88726.78;;;9.70;58.98
8047;BME280;67150;42.516;23.358;2023-02-28T01:48:17;88726.38;;;9.63;59.18
8047;BME280;67150;42.516;23.358;2023-02-28T01:51:07;88733.03;;;9.64;59.08
8047;BME280;67150;42.516;23.358;2023-02-28T01:53:57;88720.25;;;9.67;59.22
8047;BME280;67150;42.516;23.358;2023-02-28T01:56:47;88724.41;;;9.68;59.06
8047;BME280;67150;42.516;23.358;2023-02-28T01:59:40;88737.66;;;9.70;58.86
8047;BME280;67150;42.516;23.358;2023-02-28T02:02:32;88737.25;;;9.64;59.16
8047;BME280;67150;42.516;23.358;2023-02-28T02:05:22;88741.47;;;9.63;59.07
8047;BME280;67150;42.516;23.358;2023-02-28T02:08:11;88739.16;;;9.60;59.02
8047;BME280;67150;42.516;23.358;2023-02-28T02:11:00;88746.63;;;9.62;59.17
8047;BME280;67150;42.516;23.358;2023-02-28T02:14:08;88746.41;;;9.65;59.31
8047;BME280;67150;42.516;23.358;2023-02-28T02:17:07;88750.84;;;9.61;59.23
8047;BME280;67150;42.516;23.358;2023-02-28T02:27:07;88743.22;;;9.63;59.00
8047;BME280;67150;42.516;23.358;2023-02-28T02:30:27;88735.66;;;9.50;59.19
8047;BME280;67150;42.516;23.358;2023-02-28T02:33:28;88744.50;;;9.55;59.26
8047;BME280;67150;42.516;23.358;2023-02-28T02:36:27;88744.31;;;9.58;59.02
8047;BME280;67150;42.516;23.358;2023-02-28T02:39:24;88742.28;;;9.51;59.00
8047;BME280;67150;42.516;23.358;2023-02-28T02:42:18;88746.50;;;9.50;59.20
8047;BME280;67150;42.516;23.358;2023-02-28T02:45:09;88739.06;;;9.49;59.28
8047;BME280;67150;42.516;23.358;2023-02-28T02:47:58;88745.97;;;9.45;59.54
8047;BME280;67150;42.516;23.358;2023-02-28T02:50:48;88749.13;;;9.49;59.33
8047;BME280;67150;42.516;23.358;2023-02-28T02:53:39;88746.72;;;9.47;59.22
8047;BME280;67150;42.516;23.358;2023-02-28T02:56:28;88750.81;;;9.48;59.32
8047;BME280;67150;42.516;23.358;2023-02-28T02:59:18;88752.75;;;9.45;59.19
8047;BME280;67150;42.516;23.358;2023-02-28T03:02:08;88760.09;;;9.48;59.37
8047;BME280;67150;42.516;23.358;2023-02-28T03:04:59;88762.81;;;9.45;59.29
8047;BME280;67150;42.516;23.358;2023-02-28T03:07:46;88762.06;;;9.43;59.43
8047;BME280;67150;42.516;23.358;2023-02-28T03:10:39;88769.22;;;9.49;59.30
8047;BME280;67150;42.516;23.358;2023-02-28T03:16:51;88778.78;;;9.44;59.10
8047;BME280;67150;42.516;23.358;2023-02-28T03:19:53;88772.13;;;9.43;59.44
8047;BME280;67150;42.516;23.358;2023-02-28T03:22:49;88772.44;;;9.38;59.05
8047;BME280;67150;42.516;23.358;2023-02-28T03:25:53;88787.97;;;9.45;59.42
8047;BME280;67150;42.516;23.358;2023-02-28T03:28:43;88790.84;;;9.39;59.46
8047;BME280;67150;42.516;23.358;2023-02-28T03:31:37;88795.59;;;9.43;59.03
8047;BME280;67150;42.516;23.358;2023-02-28T03:34:29;88803.31;;;9.40;58.97
8047;BME280;67150;42.516;23.358;2023-02-28T03:37:16;88802.50;;;9.40;59.20
8047;BME280;67150;42.516;23.358;2023-02-28T03:40:07;88810.25;;;9.37;59.15
8047;BME280;67150;42.516;23.358;2023-02-28T03:43:03;88806.22;;;9.34;59.25
8047;BME280;67150;42.516;23.358;2023-02-28T03:45:51;88817.09;;;9.35;59.16
8047;BME280;67150;42.516;23.358;2023-02-28T03:48:42;88817.78;;;9.37;59.22
8047;BME280;67150;42.516;23.358;2023-02-28T03:51:29;88816.66;;;9.28;59.16
8047;BME280;67150;42.516;23.358;2023-02-28T03:54:19;88819.53;;;9.36;59.12
8047;BME280;67150;42.516;23.358;2023-02-28T03:57:12;88809.22;;;9.27;59.32
8047;BME280;67150;42.516;23.358;2023-02-28T04:00:04;88816.78;;;9.27;59.29
8047;BME280;67150;42.516;23.358;2023-02-28T04:02:52;88823.31;;;9.29;59.29
8047;BME280;67150;42.516;23.358;2023-02-28T04:05:47;88818.56;;;9.25;59.52
8047;BME280;67150;42.516;23.358;2023-02-28T04:08:34;88814.34;;;9.25;59.45
8047;BME280;67150;42.516;23.358;2023-02-28T04:11:23;88817.56;;;9.27;59.41
8047;BME280;67150;42.516;23.358;2023-02-28T04:14:12;88822.03;;;9.36;59.03
8047;BME280;67150;42.516;23.358;2023-02-28T04:17:00;88826.09;;;9.25;59.50
8047;BME280;67150;42.516;23.358;2023-02-28T04:19:46;88820.47;;;9.21;59.34
8047;BME280;67150;42.516;23.358;2023-02-28T04:22:32;88820.88;;;9.28;59.47
8047;BME280;67150;42.516;23.358;2023-02-28T04:25:18;88822.88;;;9.23;59.15
8047;BME280;67150;42.516;23.358;2023-02-28T04:28:04;88827.34;;;9.32;59.15
8047;BME280;67150;42.516;23.358;2023-02-28T04:30:55;88832.94;;;9.23;59.41
8047;BME280;67150;42.516;23.358;2023-02-28T04:33:42;88841.59;;;9.19;59.69
8047;BME280;67150;42.516;23.358;2023-02-28T04:36:28;88838.78;;;9.23;59.36
8047;BME280;67150;42.516;23.358;2023-02-28T04:39:14;88841.00;;;9.28;59.03
8047;BME280;67150;42.516;23.358;2023-02-28T04:42:01;88846.31;;;9.23;59.40
8047;BME280;67150;42.516;23.358;2023-02-28T04:44:47;88841.38;;;9.22;59.43
8047;BME280;67150;42.516;23.358;2023-02-28T04:47:33;88837.34;;;9.19;59.34
8047;BME280;67150;42.516;23.358;2023-02-28T04:50:20;88837.63;;;9.15;59.73
8047;BME280;67150;42.516;23.358;2023-02-28T04:53:06;88830.91;;;9.15;59.67
8047;BME280;67150;42.516;23.358;2023-02-28T04:55:52;88832.50;;;9.16;59.49
8047;BME280;67150;42.516;23.358;2023-02-28T04:58:38;88836.44;;;9.20;59.78
8047;BME280;67150;42.516;23.358;2023-02-28T05:01:25;88843.19;;;9.20;59.55
8047;BME280;67150;42.516;23.358;2023-02-28T05:04:11;88847.00;;;9.25;59.46
8047;BME280;67150;42.516;23.358;2023-02-28T05:06:58;88842.75;;;9.13;59.94
8047;BME280;67150;42.516;23.358;2023-02-28T05:09:44;88839.78;;;9.21;59.67
8047;BME280;67150;42.516;23.358;2023-02-28T05:12:29;88845.69;;;9.20;59.97
8047;BME280;67150;42.516;23.358;2023-02-28T05:15:16;88842.75;;;9.13;60.00
8047;BME280;67150;42.516;23.358;2023-02-28T05:18:02;88852.19;;;9.10;59.91
8047;BME280;67150;42.516;23.358;2023-02-28T05:20:47;88840.16;;;9.15;59.95
8047;BME280;67150;42.516;23.358;2023-02-28T05:23:35;88845.88;;;9.17;60.21
8047;BME280;67150;42.516;23.358;2023-02-28T05:26:21;88851.19;;;9.12;60.39
8047;BME280;67150;42.516;23.358;2023-02-28T05:29:07;88853.97;;;9.08;59.97
8047;BME280;67150;42.516;23.358;2023-02-28T05:31:54;88863.28;;;9.20;59.70
8047;BME280;67150;42.516;23.358;2023-02-28T05:34:40;88860.53;;;9.10;59.98
8047;BME280;67150;42.516;23.358;2023-02-28T05:37:25;88872.53;;;9.19;59.82
8047;BME280;67150;42.516;23.358;2023-02-28T05:40:13;88868.88;;;9.11;60.09
8047;BME280;67150;42.516;23.358;2023-02-28T05:42:59;88876.97;;;9.16;59.92
8047;BME280;67150;42.516;23.358;2023-02-28T05:45:46;88882.19;;;9.13;60.00
8047;BME280;67150;42.516;23.358;2023-02-28T05:48:32;88881.59;;;9.22;59.74
8047;BME280;67150;42.516;23.358;2023-02-28T05:51:18;88891.47;;;9.25;59.82
8047;BME280;67150;42.516;23.358;2023-02-28T05:54:04;88890.59;;;9.12;60.11
8047;BME280;67150;42.516;23.358;2023-02-28T05:56:51;88888.97;;;9.11;60.18
8047;BME280;67150;42.516;23.358;2023-02-28T05:59:36;88889.59;;;9.14;60.11
8047;BME280;67150;42.516;23.358;2023-02-28T06:02:24;88894.63;;;9.14;60.19
8047;BME280;67150;42.516;23.358;2023-02-28T06:05:13;88896.97;;;9.17;60.28
8047;BME280;67150;42.516;23.358;2023-02-28T06:07:59;88897.78;;;9.18;60.01
8047;BME280;67150;42.516;23.358;2023-02-28T06:10:45;88892.63;;;9.19;59.82
8047;BME280;67150;42.516;23.358;2023-02-28T06:13:32;88899.78;;;9.13;60.57
8047;BME280;67150;42.516;23.358;2023-02-28T06:16:18;88898.97;;;9.12;60.07
8047;BME280;67150;42.516;23.358;2023-02-28T06:19:04;88897.63;;;9.07;60.45
8047;BME280;67150;42.516;23.358;2023-02-28T06:21:50;88902.09;;;9.16;60.41
8047;BME280;67150;42.516;23.358;2023-02-28T06:24:36;88901.66;;;9.09;60.54
8047;BME280;67150;42.516;23.358;2023-02-28T06:27:22;88898.34;;;9.09;60.27
8047;BME280;67150;42.516;23.358;2023-02-28T06:30:11;88895.44;;;9.15;60.30
8047;BME280;67150;42.516;23.358;2023-02-28T06:32:57;88901.47;;;9.12;60.07
8047;BME280;67150;42.516;23.358;2023-02-28T06:35:43;88899.97;;;9.10;60.49
8047;BME280;67150;42.516;23.358;2023-02-28T06:38:29;88898.69;;;9.02;60.51
8047;BME280;67150;42.516;23.358;2023-02-28T06:41:15;88902.34;;;9.11;60.42
8047;BME280;67150;42.516;23.358;2023-02-28T06:44:01;88905.88;;;9.09;60.70
8047;BME280;67150;42.516;23.358;2023-02-28T06:46:48;88912.53;;;9.10;60.49
8047;BME280;67150;42.516;23.358;2023-02-28T06:49:36;88906.22;;;9.17;60.44
8047;BME280;67150;42.516;23.358;2023-02-28T06:52:23;88904.72;;;9.00;60.75
8047;BME280;67150;42.516;23.358;2023-02-28T06:55:09;88903.03;;;9.00;60.93
8047;BME280;67150;42.516;23.358;2023-02-28T06:57:54;88912.72;;;9.07;60.74
8047;BME280;67150;42.516;23.358;2023-02-28T07:00:40;88903.00;;;9.15;60.78
8047;BME280;67150;42.516;23.358;2023-02-28T07:03:28;88908.09;;;9.13;60.71
8047;BME280;67150;42.516;23.358;2023-02-28T07:06:14;88906.75;;;9.08;60.91
8047;BME280;67150;42.516;23.358;2023-02-28T07:09:02;88907.06;;;9.03;60.73
8047;BME280;67150;42.516;23.358;2023-02-28T07:11:49;88904.78;;;8.98;60.60
8047;BME280;67150;42.516;23.358;2023-02-28T07:14:36;88903.91;;;8.99;61.00
8047;BME280;67150;42.516;23.358;2023-02-28T07:17:22;88904.91;;;8.97;61.08
8047;BME280;67150;42.516;23.358;2023-02-28T07:20:11;88897.25;;;8.98;61.07
8047;BME280;67150;42.516;23.358;2023-02-28T07:22:58;88903.91;;;8.99;60.64
8047;BME280;67150;42.516;23.358;2023-02-28T07:25:44;88912.59;;;9.08;60.77
8047;BME280;67150;42.516;23.358;2023-02-28T07:28:30;88912.72;;;9.07;60.92
8047;BME280;67150;42.516;23.358;2023-02-28T07:31:17;88892.84;;;9.02;60.76
8047;BME280;67150;42.516;23.358;2023-02-28T07:34:02;88897.19;;;9.00;60.78
8047;BME280;67150;42.516;23.358;2023-02-28T07:36:52;88904.63;;;9.01;60.92
8047;BME280;67150;42.516;23.358;2023-02-28T07:39:39;88899.31;;;9.06;60.84
8047;BME280;67150;42.516;23.358;2023-02-28T07:42:26;88899.22;;;9.08;60.73
8047;BME280;67150;42.516;23.358;2023-02-28T07:45:15;88898.41;;;9.07;61.06
8047;BME280;67150;42.516;23.358;2023-02-28T07:48:01;88904.72;;;9.00;60.98
8047;BME280;67150;42.516;23.358;2023-02-28T07:50:54;88895.84;;;8.94;60.91
8047;BME280;67150;42.516;23.358;2023-02-28T07:53:42;88890.97;;;9.06;60.81
8047;BME280;67150;42.516;23.358;2023-02-28T07:56:28;88893.59;;;9.04;60.97
8047;BME280;67150;42.516;23.358;2023-02-28T07:59:13;88889.72;;;8.98;61.17
8047;BME280;67150;42.516;23.358;2023-02-28T08:01:59;88902.09;;;9.01;61.27
8047;BME280;67150;42.516;23.358;2023-02-28T08:04:46;88903.09;;;8.99;61.44
8047;BME280;67150;42.516;23.358;2023-02-28T08:07:32;88900.41;;;9.02;61.11
8047;BME280;67150;42.516;23.358;2023-02-28T08:10:20;88904.78;;;8.98;61.26
8047;BME280;67150;42.516;23.358;2023-02-28T08:13:06;88910.56;;;9.00;61.23
8047;BME280;67150;42.516;23.358;2023-02-28T08:15:51;88904.00;;;8.98;61.48
8047;BME280;67150;42.516;23.358;2023-02-28T08:18:37;88910.00;;;8.95;61.64
8047;BME280;67150;42.516;23.358;2023-02-28T08:21:23;88907.13;;;9.01;61.55
8047;BME280;67150;42.516;23.358;2023-02-28T08:24:09;88895.81;;;9.09;61.25
8047;BME280;67150;42.516;23.358;2023-02-28T08:26:56;88906.25;;;9.02;60.88
8047;BME280;67150;42.516;23.358;2023-02-28T08:29:42;88892.97;;;9.00;61.50
8047;BME280;67150;42.516;23.358;2023-02-28T08:32:29;88906.06;;;9.06;61.19
8047;BME280;67150;42.516;23.358;2023-02-28T08:35:15;88910.28;;;9.05;61.21
8047;BME280;67150;42.516;23.358;2023-02-28T08:38:01;88911.09;;;9.06;61.24
8047;BME280;67150;42.516;23.358;2023-02-28T08:40:47;88904.53;;;9.03;61.45
8047;BME280;67150;42.516;23.358;2023-02-28T08:43:34;88909.28;;;9.08;61.28
8047;BME280;67150;42.516;23.358;2023-02-28T08:46:21;88911.44;;;8.99;61.54
8047;BME280;67150;42.516;23.358;2023-02-28T08:49:07;88914.47;;;9.05;61.61
8047;BME280;67150;42.516;23.358;2023-02-28T08:51:53;88912.16;;;9.01;61.59
8047;BME280;67150;42.516;23.358;2023-02-28T08:54:41;88905.72;;;8.97;61.69
8047;BME280;67150;42.516;23.358;2023-02-28T08:57:27;88915.28;;;9.05;61.31
8047;BME280;67150;42.516;23.358;2023-02-28T09:00:15;88914.47;;;9.05;61.55
8047;BME280;67150;42.516;23.358;2023-02-28T09:03:01;88917.38;;;9.13;61.41
8047;BME280;67150;42.516;23.358;2023-02-28T09:05:58;88921.50;;;8.99;61.70
8047;BME280;67150;42.516;23.358;2023-02-28T09:08:44;88917.28;;;9.00;61.44
8047;BME280;67150;42.516;23.358;2023-02-28T09:11:30;88920.44;;;9.04;61.30
8047;BME280;67150;42.516;23.358;2023-02-28T09:14:16;88917.63;;;9.08;61.46
8047;BME280;67150;42.516;23.358;2023-02-28T09:17:04;88915.28;;;9.05;61.67
8047;BME280;67150;42.516;23.358;2023-02-28T09:19:49;88919.69;;;9.01;61.83
8047;BME280;67150;42.516;23.358;2023-02-28T09:22:35;88919.69;;;9.01;61.67
8047;BME280;67150;42.516;23.358;2023-02-28T09:25:21;88919.50;;;9.05;61.35
8047;BME280;67150;42.516;23.358;2023-02-28T09:28:07;88916.22;;;9.04;61.39
8047;BME280;67150;42.516;23.358;2023-02-28T09:30:53;88922.56;;;9.10;61.49
8047;BME280;67150;42.516;23.358;2023-02-28T09:33:43;88918.81;;;9.02;61.81
8047;BME280;67150;42.516;23.358;2023-02-28T09:36:28;88914.28;;;9.08;61.82
8047;BME280;67150;42.516;23.358;2023-02-28T09:39:14;88909.63;;;9.01;61.46
8047;BME280;67150;42.516;23.358;2023-02-28T09:42:02;88916.91;;;9.06;61.35
8047;BME280;67150;42.516;23.358;2023-02-28T09:44:50;88908.75;;;9.02;61.36
8047;BME280;67150;42.516;23.358;2023-02-28T09:47:39;88902.53;;;9.08;61.63
8047;BME280;67150;42.516;23.358;2023-02-28T09:50:33;88917.56;;;9.10;61.39
8047;BME280;67150;42.516;23.358;2023-02-28T09:53:23;88916.00;;;9.07;61.32
8047;BME280;67150;42.516;23.358;2023-02-28T09:56:18;88917.19;;;9.01;61.55
8047;BME280;67150;42.516;23.358;2023-02-28T09:59:21;88914.47;;;9.05;61.79
8047;BME280;67150;42.516;23.358;2023-02-28T10:02:21;88915.41;;;9.04;61.66
8047;BME280;67150;42.516;23.358;2023-02-28T10:05:12;88914.66;;;9.01;62.01
8047;BME280;67150;42.516;23.358;2023-02-28T10:08:09;88915.59;;;9.00;61.98
8047;BME280;67150;42.516;23.358;2023-02-28T10:11:00;88918.09;;;9.00;61.86
8047;BME280;67150;42.516;23.358;2023-02-28T10:13:52;88913.97;;;8.99;61.67
8047;BME280;67150;42.516;23.358;2023-02-28T10:16:43;88903.28;;;8.96;62.06
8047;BME280;67150;42.516;23.358;2023-02-28T10:19:40;88899.16;;;8.95;61.82
8047;BME280;67150;42.516;23.358;2023-02-28T10:22:32;88900.75;;;8.96;61.65
8047;BME280;67150;42.516;23.358;2023-02-28T10:25:22;88902.09;;;9.01;61.73
8047;BME280;67150;42.516;23.358;2023-02-28T10:28:11;88902.38;;;8.97;61.90
8047;BME280;67150;42.516;23.358;2023-02-28T10:30:58;88904.91;;;8.97;62.04
8047;BME280;67150;42.516;23.358;2023-02-28T10:33:44;88899.06;;;8.96;62.18
8047;BME280;67150;42.516;23.358;2023-02-28T10:36:30;88888.81;;;8.99;62.17
8047;BME280;67150;42.516;23.358;2023-02-28T10:39:35;88889.34;;;9.05;62.04
8047;BME280;67150;42.516;23.358;2023-02-28T10:42:24;88877.34;;;8.95;61.91
8047;BME280;67150;42.516;23.358;2023-02-28T10:45:12;88880.78;;;8.94;62.25
8047;BME280;67150;42.516;23.358;2023-02-28T10:48:00;88862.09;;;8.84;62.09
8047;BME280;67150;42.516;23.358;2023-02-28T10:50:51;88869.00;;;8.95;62.09
8047;BME280;67150;42.516;23.358;2023-02-28T10:53:47;88875.63;;;8.96;62.01
8047;BME280;67150;42.516;23.358;2023-02-28T10:56:33;88872.06;;;9.00;61.88
8047;BME280;67150;42.516;23.358;2023-02-28T10:59:28;88865.50;;;8.97;62.14
8047;BME280;67150;42.516;23.358;2023-02-28T11:02:30;88864.59;;;8.98;62.22
8047;BME280;67150;42.516;23.358;2023-02-28T11:05:28;88853.38;;;8.90;62.25
8047;BME280;67150;42.516;23.358;2023-02-28T11:08:16;88852.41;;;8.92;62.63
8047;BME280;67150;42.516;23.358;2023-02-28T11:11:04;88854.81;;;8.94;62.06
8047;BME280;67150;42.516;23.358;2023-02-28T11:13:53;88851.31;;;8.96;61.89
8047;BME280;67150;42.516;23.358;2023-02-28T11:16:40;88849.31;;;9.01;61.81
8047;BME280;67150;42.516;23.358;2023-02-28T11:19:38;88847.72;;;9.00;62.16
8047;BME280;67150;42.516;23.358;2023-02-28T11:22:28;88845.22;;;9.00;62.08
8047;BME280;67150;42.516;23.358;2023-02-28T11:25:21;88853.75;;;8.98;61.88
8047;BME280;67150;42.516;23.358;2023-02-28T11:28:26;88854.03;;;8.93;62.56
8047;BME280;67150;42.516;23.358;2023-02-28T11:31:17;88853.03;;;8.96;62.48
8047;BME280;67150;42.516;23.358;2023-02-28T11:34:24;88847.72;;;9.00;62.17
8047;BME280;67150;42.516;23.358;2023-02-28T11:37:14;88848.09;;;8.94;62.13
8047;BME280;67150;42.516;23.358;2023-02-28T11:40:01;88841.63;;;8.90;62.39
8047;BME280;67150;42.516;23.358;2023-02-28T11:43:08;88841.44;;;8.93;62.29
8047;BME280;67150;42.516;23.358;2023-02-28T11:46:06;88844.97;;;8.91;62.40
8047;BME280;67150;42.516;23.358;2023-02-28T11:49:04;88843.25;;;8.91;62.56
8047;BME280;67150;42.516;23.358;2023-02-28T11:51:56;88837.25;;;8.94;62.49
8047;BME280;67150;42.516;23.358;2023-02-28T11:54:59;88841.19;;;8.98;62.42
8047;BME280;67150;42.516;23.358;2023-02-28T11:58:13;88848.81;;;8.96;62.71
8047;BME280;67150;42.516;23.358;2023-02-28T12:01:15;88849.81;;;8.94;62.51
8047;BME280;67150;42.516;23.358;2023-02-28T12:04:17;88842.44;;;8.91;62.48
8047;BME280;67150;42.516;23.358;2023-02-28T12:07:13;88833.91;;;8.93;62.26
8047;BME280;67150;42.516;23.358;2023-02-28T12:10:06;88836.72;;;8.89;62.59
8047;BME280;67150;42.516;23.358;2023-02-28T12:13:04;88834.22;;;8.89;62.16
8047;BME280;67150;42.516;23.358;2023-02-28T12:16:06;88828.00;;;8.94;62.15
8047;BME280;67150;42.516;23.358;2023-02-28T12:19:06;88826.56;;;8.90;62.39
8047;BME280;67150;42.516;23.358;2023-02-28T12:22:12;88829.97;;;8.89;62.30
8047;BME280;67150;42.516;23.358;2023-02-28T12:25:22;88830.88;;;8.88;62.35
8047;BME280;67150;42.516;23.358;2023-02-28T12:28:12;88834.28;;;8.87;62.48
8047;BME280;67150;42.516;23.358;2023-02-28T12:31:02;88835.81;;;8.90;62.38
8047;BME280;67150;42.516;23.358;2023-02-28T12:33:53;88832.28;;;8.92;62.53
8047;BME280;67150;42.516;23.358;2023-02-28T12:36:41;88831.59;;;8.90;62.35
8047;BME280;67150;42.516;23.358;2023-02-28T12:39:36;88823.88;;;8.93;62.24
8047;BME280;67150;42.516;23.358;2023-02-28T12:42:26;88830.50;;;8.94;62.27
8047;BME280;67150;42.516;23.358;2023-02-28T12:45:18;88822.53;;;8.88;62.22
8047;BME280;67150;42.516;23.358;2023-02-28T12:48:08;88816.50;;;8.90;62.30
8047;BME280;67150;42.516;23.358;2023-02-28T12:50:59;88821.34;;;8.93;61.97
8047;BME280;67150;42.516;23.358;2023-02-28T12:53:52;88820.53;;;8.93;62.29
8047;BME280;67150;42.516;23.358;2023-02-28T12:56:47;88812.19;;;8.92;62.50
8047;BME280;67150;42.516;23.358;2023-02-28T12:59:41;88814.69;;;8.92;62.36
8047;BME280;67150;42.516;23.358;2023-02-28T13:06:05;88815.09;;;8.86;62.72
8047;BME280;67150;42.516;23.358;2023-02-28T13:09:06;88815.50;;;8.93;62.23
8047;BME280;67150;42.516;23.358;2023-02-28T13:11:56;88820.66;;;8.91;62.29
8047;BME280;67150;42.516;23.358;2023-02-28T13:14:43;88816.50;;;8.90;62.56
8047;BME280;67150;42.516;23.358;2023-02-28T13:17:29;88816.50;;;8.90;62.58
8047;BME280;67150;42.516;23.358;2023-02-28T13:20:17;88810.97;;;8.85;62.47
8047;BME280;67150;42.516;23.358;2023-02-28T13:23:39;88811.59;;;8.89;62.48
8047;BME280;67150;42.516;23.358;2023-02-28T13:29:44;88810.09;;;8.86;62.43
8047;BME280;67150;42.516;23.358;2023-02-28T13:32:35;88811.84;;;8.84;62.38
8047;BME280;67150;42.516;23.358;2023-02-28T13:35:45;88806.47;;;8.90;62.27
8047;BME280;67150;42.516;23.358;2023-02-28T13:38:39;88804.06;;;8.89;62.44
8047;BME280;67150;42.516;23.358;2023-02-28T13:41:45;88799.72;;;8.91;62.16
8047;BME280;67150;42.516;23.358;2023-02-28T13:48:01;88800.72;;;8.88;62.14
8047;BME280;67150;42.516;23.358;2023-02-28T13:50:47;88800.91;;;8.85;62.55
8047;BME280;67150;42.516;23.358;2023-02-28T13:53:53;88799.28;;;8.84;62.70
8047;BME280;67150;42.516;23.358;2023-02-28T13:56:46;88796.72;;;8.86;62.23
8047;BME280;67150;42.516;23.358;2023-02-28T13:59:40;88812.66;;;8.85;62.42
8047;BME280;67150;42.516;23.358;2023-02-28T14:02:45;88817.63;;;8.86;62.13
8047;BME280;67150;42.516;23.358;2023-02-28T14:05:36;88816.81;;;8.86;62.42
8047;BME280;67150;42.516;23.358;2023-02-28T14:08:23;88823.44;;;8.87;62.29
8047;BME280;67150;42.516;23.358;2023-02-28T14:11:24;88815.09;;;8.86;62.28
8047;BME280;67150;42.516;23.358;2023-02-28T14:17:37;88815.88;;;8.87;62.59
8047;BME280;67150;42.516;23.358;2023-02-28T14:20:27;88815.28;;;8.83;62.39
8047;BME280;67150;42.516;23.358;2023-02-28T14:23:26;88820.31;;;8.83;62.45
8047;BME280;67150;42.516;23.358;2023-02-28T14:26:30;88821.72;;;8.87;62.25
8047;BME280;67150;42.516;23.358;2023-02-28T14:29:34;88824.22;;;8.87;62.13
8047;BME280;67150;42.516;23.358;2023-02-28T14:32:28;88822.09;;;8.81;62.38
8047;BME280;67150;42.516;23.358;2023-02-28T14:35:29;88819.59;;;8.81;62.33
8047;BME280;67150;42.516;23.358;2023-02-28T14:38:24;88813.03;;;8.79;62.33
8047;BME280;67150;42.516;23.358;2023-02-28T14:41:17;88817.00;;;8.83;62.45
8047;BME280;67150;42.516;23.358;2023-02-28T14:44:14;88818.00;;;8.80;62.43
8047;BME280;67150;42.516;23.358;2023-02-28T14:47:02;88814.66;;;8.80;62.39
8047;BME280;67150;42.516;23.358;2023-02-28T14:49:51;88813.75;;;8.81;62.32
8047;BME280;67150;42.516;23.358;2023-02-28T14:52:36;88816.25;;;8.81;62.57
8047;BME280;67150;42.516;23.358;2023-02-28T14:55:26;88818.06;;;8.79;62.31
8047;BME280;67150;42.516;23.358;2023-02-28T14:58:22;88808.66;;;8.82;62.37
8047;BME280;67150;42.516;23.358;2023-02-28T15:01:10;88799.22;;;8.86;62.35
8047;BME280;67150;42.516;23.358;2023-02-28T15:04:01;88812.78;;;8.83;62.58
8047;BME280;67150;42.516;23.358;2023-02-28T15:07:09;88809.53;;;8.81;62.67
8047;BME280;67150;42.516;23.358;2023-02-28T15:10:15;88806.13;;;8.82;62.24
8047;BME280;67150;42.516;23.358;2023-02-28T15:13:05;88810.44;;;8.80;62.24
8047;BME280;67150;42.516;23.358;2023-02-28T15:15:55;88814.66;;;8.80;62.32
8047;BME280;67150;42.516;23.358;2023-02-28T15:18:47;88814.03;;;8.76;62.34
8047;BME280;67150;42.516;23.358;2023-02-28T15:21:35;88817.06;;;8.81;62.13
8047;BME280;67150;42.516;23.358;2023-02-28T15:24:27;88817.25;;;8.78;62.62
8047;BME280;67150;42.516;23.358;2023-02-28T15:27:21;88823.38;;;8.74;62.63
8047;BME280;67150;42.516;23.358;2023-02-28T15:30:15;88821.47;;;8.78;62.63
8047;BME280;67150;42.516;23.358;2023-02-28T15:33:05;88813.84;;;8.79;62.54
8047;BME280;67150;42.516;23.358;2023-02-28T15:36:10;88804.00;;;8.76;62.45
8047;BME280;67150;42.516;23.358;2023-02-28T15:38:56;88799.84;;;8.75;62.48